Аэропорт: Михайловка. Барнаул

ICAO: UNBB

METAR:
2018/11/21 18:30
UNBB 211830Z 20005MPS 8000 -SN BKN008 M03/M05 Q1016 R24/690145 NOSIG RMK QFE740
METAR:
2018/11/21 18:21
TAF UNBB 211700Z 2118/2218 20006G12MPS 9999 SCT011 BKN020CB 
      TEMPO 2118/2121 3100 -SHSN DRSN SCT004 BKN015CB 
      TEMPO 2121/2218 1000 SHSN DRSN SCT002 BKN011CB